createdAt,value
2023-02-09T00:00:07.482Z,6.55
2023-02-09T00:02:35.112Z,6.43
2023-02-09T00:05:04.189Z,7.15
2023-02-09T00:07:31.789Z,10.10
2023-02-09T00:09:59.387Z,6.63
2023-02-09T00:12:44.745Z,5.60
2023-02-09T00:15:12.543Z,6.45
2023-02-09T00:17:40.119Z,5.10
2023-02-09T00:20:09.702Z,5.10
2023-02-09T00:22:37.250Z,7.32
2023-02-09T00:25:04.873Z,3.45
2023-02-09T00:27:35.547Z,6.32
2023-02-09T00:30:03.280Z,6.38
2023-02-09T00:32:33.064Z,5.00
2023-02-09T00:35:00.619Z,4.63
2023-02-09T00:37:29.604Z,6.32
2023-02-09T00:39:57.153Z,7.50
2023-02-09T00:42:24.708Z,5.47
2023-02-09T00:44:52.280Z,4.33
2023-02-09T00:47:19.841Z,6.60
2023-02-09T00:49:47.469Z,5.38
2023-02-09T00:52:15.093Z,6.68
2023-02-09T00:54:44.028Z,7.28
2023-02-09T00:57:12.126Z,5.73
2023-02-09T00:59:40.716Z,7.80
2023-02-09T01:02:08.489Z,7.38
2023-02-09T01:04:36.060Z,3.70
2023-02-09T01:07:03.662Z,6.15
2023-02-09T01:09:31.394Z,6.33
2023-02-09T01:12:00.344Z,6.88
2023-02-09T01:14:27.926Z,7.53
2023-02-09T01:16:55.510Z,5.35
2023-02-09T01:19:23.063Z,6.55
2023-02-09T01:21:50.682Z,4.53
2023-02-09T01:24:18.251Z,5.13
2023-02-09T01:26:45.856Z,9.15
2023-02-09T01:29:15.982Z,7.50
2023-02-09T01:31:44.236Z,7.97
2023-02-09T01:34:13.176Z,3.80
2023-02-09T01:36:40.800Z,6.30
2023-02-09T01:39:08.392Z,6.88
2023-02-09T01:41:36.017Z,7.45
2023-02-09T01:44:04.422Z,5.65
2023-02-09T01:46:33.844Z,7.80
2023-02-09T01:49:04.855Z,6.38
2023-02-09T01:51:34.100Z,5.05
2023-02-09T01:54:01.977Z,7.43
2023-02-09T01:56:30.601Z,10.60
2023-02-09T01:58:58.147Z,6.93
2023-02-09T02:01:25.881Z,5.10
2023-02-09T02:03:55.598Z,6.45
2023-02-09T02:06:23.208Z,9.57
2023-02-09T02:08:53.669Z,7.40
2023-02-09T02:11:22.298Z,6.30
2023-02-09T02:13:49.844Z,7.28
2023-02-09T02:16:24.846Z,6.05
2023-02-09T02:19:03.320Z,5.90
2023-02-09T02:21:49.534Z,6.75
2023-02-09T02:24:24.008Z,6.13
2023-02-09T02:26:54.663Z,5.97
2023-02-09T02:29:28.896Z,6.75
2023-02-09T02:32:13.632Z,7.53
2023-02-09T02:34:46.701Z,9.15
2023-02-09T02:37:25.156Z,5.63
2023-02-09T02:39:59.280Z,6.53
2023-02-09T02:42:50.125Z,9.25
2023-02-09T02:45:22.886Z,6.90
2023-02-09T02:47:56.013Z,9.57
2023-02-09T02:50:25.424Z,11.60
2023-02-09T02:52:54.778Z,6.93
2023-02-09T02:55:24.415Z,5.18
2023-02-09T02:57:54.681Z,8.40
2023-02-09T03:00:23.963Z,6.90
2023-02-09T03:02:54.452Z,8.23
2023-02-09T03:05:23.806Z,10.90
2023-02-09T03:07:51.742Z,8.65
2023-02-09T03:10:27.768Z,6.50
2023-02-09T03:13:01.635Z,6.82
2023-02-09T03:15:33.448Z,8.60
2023-02-09T03:18:05.926Z,7.38
2023-02-09T03:20:39.020Z,7.45
2023-02-09T03:23:08.759Z,8.05
2023-02-09T03:25:38.646Z,5.75
2023-02-09T03:28:07.952Z,7.37
2023-02-09T03:30:36.226Z,8.05
2023-02-09T03:33:06.121Z,7.88
2023-02-09T03:35:36.344Z,10.38
2023-02-09T03:38:06.669Z,11.23
2023-02-09T03:40:34.299Z,7.60
2023-02-09T03:43:01.857Z,5.07
2023-02-09T03:45:29.424Z,8.20
2023-02-09T03:47:56.976Z,6.72
2023-02-09T03:50:25.975Z,5.63
2023-02-09T03:52:54.028Z,4.73
2023-02-09T03:55:21.598Z,6.57
2023-02-09T03:57:49.126Z,5.47
2023-02-09T04:00:17.185Z,7.88
2023-02-09T04:02:45.147Z,9.02
2023-02-09T04:05:14.219Z,5.73
2023-02-09T04:07:43.313Z,5.22
2023-02-09T04:10:11.300Z,7.10
2023-02-09T04:12:38.875Z,9.48
2023-02-09T04:15:06.646Z,6.88
2023-02-09T04:17:34.159Z,8.27
2023-02-09T04:20:02.002Z,8.43
2023-02-09T04:22:29.597Z,7.38
2023-02-09T04:24:58.570Z,7.50
2023-02-09T04:27:27.153Z,8.15
2023-02-09T04:29:54.834Z,7.87
2023-02-09T04:32:22.406Z,8.30
2023-02-09T04:34:49.968Z,8.52
2023-02-09T04:37:17.511Z,5.57
2023-02-09T04:39:45.060Z,7.57
2023-02-09T04:42:13.981Z,7.13
2023-02-09T04:44:41.532Z,6.20
2023-02-09T04:47:09.099Z,7.05
2023-02-09T04:49:36.625Z,7.80
2023-02-09T04:52:04.290Z,6.85
2023-02-09T04:54:31.836Z,6.57
2023-02-09T04:57:13.274Z,8.55
2023-02-09T04:59:44.873Z,6.78
2023-02-09T05:02:12.467Z,6.05
2023-02-09T05:04:40.032Z,8.73
2023-02-09T05:07:07.654Z,8.80
2023-02-09T05:09:35.236Z,6.55
2023-02-09T05:12:02.923Z,5.85
2023-02-09T05:14:30.469Z,8.18
2023-02-09T05:16:59.618Z,6.68
2023-02-09T05:19:27.308Z,7.77
2023-02-09T05:21:54.892Z,5.13
2023-02-09T05:24:22.504Z,6.55
2023-02-09T05:26:50.159Z,8.45
2023-02-09T05:29:17.741Z,6.30
2023-02-09T05:31:45.478Z,8.17
2023-02-09T05:34:14.482Z,7.78
2023-02-09T05:36:42.218Z,5.97
2023-02-09T05:39:09.794Z,5.22
2023-02-09T05:41:54.702Z,4.80
2023-02-09T05:44:22.254Z,5.77
2023-02-09T05:46:49.841Z,5.40
2023-02-09T05:49:18.899Z,5.90
2023-02-09T05:51:46.443Z,6.50
2023-02-09T05:54:14.005Z,2.42
2023-02-09T05:56:41.859Z,5.13
2023-02-09T05:59:09.420Z,5.47
2023-02-09T06:01:37.063Z,7.55
2023-02-09T06:04:04.688Z,5.50
2023-02-09T06:06:33.656Z,5.47
2023-02-09T06:09:01.241Z,4.53
2023-02-09T06:11:28.816Z,4.68
2023-02-09T06:13:56.409Z,6.13
2023-02-09T06:16:24.045Z,5.38
2023-02-09T06:18:51.606Z,6.22
2023-02-09T06:21:19.197Z,5.50
2023-02-09T06:23:48.117Z,5.15
2023-02-09T06:26:16.713Z,5.60
2023-02-09T06:28:44.378Z,5.22
2023-02-09T06:31:12.380Z,5.00
2023-02-09T06:33:40.303Z,5.37
2023-02-09T06:36:08.758Z,5.35
2023-02-09T06:38:36.772Z,4.55
2023-02-09T06:41:05.825Z,4.57
2023-02-09T06:43:33.642Z,5.95
2023-02-09T06:46:05.897Z,5.20
2023-02-09T06:48:33.615Z,4.45
2023-02-09T06:51:01.407Z,4.43
2023-02-09T06:53:29.240Z,4.22
2023-02-09T06:56:00.553Z,3.72
2023-02-09T06:58:29.512Z,3.97
2023-02-09T07:00:57.036Z,4.20
2023-02-09T07:03:24.596Z,4.22
2023-02-09T07:05:52.167Z,3.72
2023-02-09T07:08:19.753Z,4.95
2023-02-09T07:10:47.507Z,3.07
2023-02-09T07:13:15.268Z,4.25
2023-02-09T07:15:44.253Z,3.42
2023-02-09T07:18:11.872Z,3.28
2023-02-09T07:20:39.419Z,3.45
2023-02-09T07:23:07.249Z,2.77
2023-02-09T07:25:35.620Z,4.03
2023-02-09T07:28:03.225Z,3.75
2023-02-09T07:30:30.849Z,3.60
2023-02-09T07:32:59.822Z,4.40
2023-02-09T07:35:27.434Z,3.67
2023-02-09T07:37:54.977Z,4.03
2023-02-09T07:40:22.781Z,3.90
2023-02-09T07:42:51.954Z,4.15
2023-02-09T07:45:19.521Z,4.45
2023-02-09T07:47:47.073Z,3.60
2023-02-09T07:50:15.781Z,4.03
2023-02-09T07:52:44.689Z,3.72
2023-02-09T07:55:12.273Z,4.40
2023-02-09T07:57:39.822Z,5.38
2023-02-09T08:00:07.776Z,4.70
2023-02-09T08:02:36.710Z,3.80
2023-02-09T08:05:06.155Z,4.60
2023-02-09T08:07:33.890Z,3.08
2023-02-09T08:10:02.828Z,4.88
2023-02-09T08:12:44.815Z,4.53
2023-02-09T08:15:12.696Z,4.50
2023-02-09T08:17:40.709Z,4.50
2023-02-09T08:20:12.823Z,4.00
2023-02-09T08:22:43.704Z,4.40
2023-02-09T08:25:12.783Z,4.47
2023-02-09T08:27:40.857Z,4.47
2023-02-09T08:30:08.836Z,4.07
2023-02-09T08:32:36.595Z,3.30
2023-02-09T08:35:04.253Z,4.28
2023-02-09T08:37:31.974Z,4.60
2023-02-09T08:39:59.545Z,4.22
2023-02-09T08:42:29.171Z,3.83
2023-02-09T08:44:56.705Z,3.95
2023-02-09T08:47:24.254Z,3.95
2023-02-09T08:49:51.851Z,4.07
2023-02-09T08:52:19.914Z,3.85
2023-02-09T08:54:47.481Z,4.38
2023-02-09T08:57:15.063Z,3.83
2023-02-09T08:59:44.038Z,5.25
2023-02-09T09:02:11.620Z,4.00
2023-02-09T09:04:39.203Z,5.68
2023-02-09T09:07:06.776Z,4.65
2023-02-09T09:09:34.439Z,4.10
2023-02-09T09:12:01.982Z,3.45
2023-02-09T09:14:30.057Z,4.00
2023-02-09T09:16:59.639Z,4.25
2023-02-09T09:19:28.544Z,4.68
2023-02-09T09:21:56.178Z,3.63
2023-02-09T09:24:28.086Z,4.35
2023-02-09T09:26:56.122Z,4.87
2023-02-09T09:29:24.002Z,3.50
2023-02-09T09:31:51.619Z,4.38
2023-02-09T09:34:20.926Z,3.67
2023-02-09T09:36:48.488Z,4.78
2023-02-09T09:39:16.084Z,4.30
2023-02-09T09:41:46.490Z,4.63
2023-02-09T09:44:16.220Z,3.50
2023-02-09T09:46:45.358Z,4.70
2023-02-09T09:49:19.842Z,5.85
2023-02-09T09:51:51.038Z,5.00
2023-02-09T09:54:20.720Z,4.03
2023-02-09T09:56:48.334Z,4.70
2023-02-09T09:59:17.645Z,3.70
2023-02-09T10:01:45.453Z,4.72
2023-02-09T10:04:14.452Z,5.93
2023-02-09T10:06:43.651Z,4.40
2023-02-09T10:09:21.990Z,5.00
2023-02-09T10:11:52.376Z,4.70
2023-02-09T10:14:21.768Z,4.45
2023-02-09T10:16:50.442Z,4.47
2023-02-09T10:19:19.773Z,5.78
2023-02-09T10:21:48.837Z,5.10
2023-02-09T10:24:22.125Z,4.18
2023-02-09T10:27:02.683Z,4.93
2023-02-09T10:29:30.275Z,3.97
2023-02-09T10:32:00.909Z,4.93
2023-02-09T10:34:31.919Z,4.97
2023-02-09T10:37:13.436Z,4.50
2023-02-09T10:39:42.814Z,4.85
2023-02-09T10:42:18.822Z,5.83
2023-02-09T10:44:48.816Z,5.68
2023-02-09T10:47:27.218Z,6.25
2023-02-09T10:49:56.000Z,4.75
2023-02-09T10:52:24.682Z,5.07
2023-02-09T10:54:56.408Z,5.20
2023-02-09T10:57:25.996Z,5.03
2023-02-09T10:59:54.164Z,5.13
2023-02-09T11:02:30.444Z,5.82
2023-02-09T11:04:58.011Z,5.47
2023-02-09T11:07:30.645Z,4.50
2023-02-09T11:10:01.254Z,6.35
2023-02-09T11:12:29.244Z,5.30
2023-02-09T11:14:56.841Z,5.45
2023-02-09T11:17:25.444Z,5.50
2023-02-09T11:20:03.312Z,5.60
2023-02-09T11:22:43.417Z,5.18
2023-02-09T11:25:18.643Z,4.97
2023-02-09T11:27:59.093Z,6.25
2023-02-09T11:30:32.059Z,5.65
2023-02-09T11:33:04.217Z,6.20
2023-02-09T11:35:41.542Z,5.63
2023-02-09T11:38:13.560Z,7.65
2023-02-09T11:40:43.335Z,5.93
2023-02-09T11:43:16.795Z,4.65
2023-02-09T11:45:45.164Z,5.40
2023-02-09T11:48:13.881Z,5.57
2023-02-09T11:50:45.220Z,6.28
2023-02-09T11:53:17.480Z,6.43
2023-02-09T11:55:48.412Z,6.22
2023-02-09T11:58:39.943Z,6.13
2023-02-09T12:01:15.699Z,6.13
2023-02-09T12:03:44.949Z,4.68
2023-02-09T12:06:12.795Z,4.95
2023-02-09T12:08:55.223Z,5.75
2023-02-09T12:11:34.257Z,4.43
2023-02-09T12:14:23.254Z,5.18
2023-02-09T12:16:54.794Z,5.38
2023-02-09T12:19:25.649Z,6.22
2023-02-09T12:21:53.216Z,6.05
2023-02-09T12:24:34.659Z,7.47
2023-02-09T12:27:03.637Z,6.10
2023-02-09T12:29:36.054Z,4.78
2023-02-09T12:32:14.156Z,8.00
2023-02-09T12:34:42.537Z,6.53
2023-02-09T12:37:27.461Z,6.53
2023-02-09T12:40:14.838Z,6.88
2023-02-09T12:42:44.870Z,6.05
2023-02-09T12:45:27.286Z,6.43
2023-02-09T12:47:58.730Z,8.07
2023-02-09T12:50:34.709Z,5.03
2023-02-09T12:53:20.886Z,6.68
2023-02-09T12:55:58.681Z,7.00
2023-02-09T12:58:40.604Z,6.40
2023-02-09T13:01:08.265Z,6.65
2023-02-09T13:03:42.414Z,7.57
2023-02-09T13:06:22.842Z,6.30
2023-02-09T13:08:53.429Z,6.70
2023-02-09T13:11:24.651Z,6.72
2023-02-09T13:13:55.786Z,5.65
2023-02-09T13:16:39.806Z,5.97
2023-02-09T13:19:17.076Z,6.57
2023-02-09T13:21:48.292Z,6.07
2023-02-09T13:24:17.050Z,6.40
2023-02-09T13:26:50.014Z,6.22
2023-02-09T13:32:21.837Z,6.38
2023-02-09T13:34:54.506Z,8.10
2023-02-09T13:37:25.337Z,8.05
2023-02-09T13:39:58.059Z,6.47
2023-02-09T13:42:26.874Z,7.57
2023-02-09T13:44:55.656Z,7.72
2023-02-09T13:47:24.616Z,7.03
2023-02-09T13:49:59.936Z,7.32
2023-02-09T13:52:28.194Z,7.53
2023-02-09T13:54:55.761Z,8.30
2023-02-09T13:57:33.018Z,7.35
2023-02-09T14:00:04.504Z,8.40
2023-02-09T14:02:35.779Z,8.23
2023-02-09T14:05:04.887Z,8.43
2023-02-09T14:07:34.385Z,7.90
2023-02-09T14:10:03.705Z,7.53
2023-02-09T14:12:55.823Z,9.32
2023-02-09T14:15:43.433Z,9.98
2023-02-09T14:18:29.079Z,9.05
2023-02-09T14:21:00.204Z,9.27
2023-02-09T14:23:32.734Z,8.63
2023-02-09T14:26:04.181Z,9.60
2023-02-09T14:28:31.795Z,8.02
2023-02-09T14:31:00.021Z,9.10
2023-02-09T14:33:29.440Z,9.47
2023-02-09T14:35:59.266Z,8.45
2023-02-09T14:38:37.484Z,11.45
2023-02-09T14:41:18.809Z,9.75
2023-02-09T14:43:46.364Z,9.93
2023-02-09T14:46:13.975Z,9.33
2023-02-09T14:48:42.909Z,8.70
2023-02-09T14:51:14.638Z,8.73
2023-02-09T14:53:43.419Z,9.55
2023-02-09T14:56:14.849Z,8.55
2023-02-09T14:58:42.387Z,8.13
2023-02-09T15:01:10.519Z,9.65
2023-02-09T15:03:38.098Z,10.57
2023-02-09T15:06:07.293Z,10.63
2023-02-09T15:08:35.900Z,9.48
2023-02-09T15:11:25.144Z,8.83
2023-02-09T15:13:54.488Z,9.65
2023-02-09T15:16:22.159Z,8.48
2023-02-09T15:18:49.796Z,9.90
2023-02-09T15:21:18.714Z,9.63
2023-02-09T15:23:46.282Z,8.53
2023-02-09T15:26:16.226Z,8.45
2023-02-09T15:28:43.906Z,8.95
2023-02-09T15:31:14.996Z,8.10
2023-02-09T15:33:43.593Z,7.65
2023-02-09T15:36:12.966Z,7.70
2023-02-09T15:38:41.927Z,8.88
2023-02-09T15:41:27.365Z,8.10
2023-02-09T15:44:12.231Z,7.18
2023-02-09T15:46:57.013Z,8.38
2023-02-09T15:49:24.563Z,6.47
2023-02-09T15:51:52.151Z,7.13
2023-02-09T15:54:21.887Z,7.38
2023-02-09T15:56:49.471Z,6.85
2023-02-09T15:59:18.835Z,7.20
2023-02-09T16:01:46.680Z,5.90
2023-02-09T16:04:14.903Z,6.90
2023-02-09T16:06:43.624Z,6.15
2023-02-09T16:09:11.631Z,7.20
2023-02-09T16:11:41.230Z,6.38
2023-02-09T16:14:14.773Z,5.47
2023-02-09T16:16:43.735Z,6.35
2023-02-09T16:21:54.331Z,5.65
2023-02-09T16:24:24.265Z,5.25
2023-02-09T16:26:53.195Z,6.67
2023-02-09T16:29:20.785Z,6.38
2023-02-09T16:31:48.732Z,6.90
2023-02-09T16:34:16.351Z,5.85
2023-02-09T16:36:43.982Z,5.70
2023-02-09T16:39:16.184Z,5.67
2023-02-09T16:41:50.602Z,4.82
2023-02-09T16:44:21.179Z,5.10
2023-02-09T16:46:50.037Z,5.85
2023-02-09T16:49:31.344Z,4.85
2023-02-09T16:51:59.393Z,5.27
2023-02-09T16:54:26.981Z,5.53
2023-02-09T16:56:54.910Z,5.78
2023-02-09T16:59:23.940Z,4.88
2023-02-09T17:01:51.834Z,4.72
2023-02-09T17:04:19.447Z,4.90
2023-02-09T17:06:49.040Z,5.15
2023-02-09T17:09:16.731Z,5.20
2023-02-09T17:11:44.308Z,6.03
2023-02-09T17:14:12.459Z,4.82
2023-02-09T17:16:43.403Z,5.60
2023-02-09T17:19:14.260Z,5.55
2023-02-09T17:21:42.272Z,5.65
2023-02-09T17:24:14.487Z,5.73
2023-02-09T17:26:42.206Z,6.38
2023-02-09T17:29:09.868Z,5.03
2023-02-09T17:31:52.446Z,5.63
2023-02-09T17:34:27.080Z,4.43
2023-02-09T17:36:54.753Z,4.93
2023-02-09T17:39:22.319Z,6.28
2023-02-09T17:41:50.093Z,4.50
2023-02-09T17:44:35.437Z,4.75
2023-02-09T17:47:07.147Z,4.35
2023-02-09T17:49:36.128Z,4.13
2023-02-09T17:52:03.777Z,4.68
2023-02-09T17:54:32.522Z,4.22
2023-02-09T17:57:00.085Z,3.75
2023-02-09T17:59:27.703Z,4.97
2023-02-09T18:01:56.244Z,4.77
2023-02-09T18:04:26.847Z,4.22
2023-02-09T18:06:57.730Z,4.43
2023-02-09T18:09:25.543Z,3.88
2023-02-09T18:11:57.642Z,4.10
2023-02-09T18:14:26.127Z,4.47
2023-02-09T18:16:55.136Z,3.65
2023-02-09T18:19:23.341Z,3.85
2023-02-09T18:21:52.361Z,3.10
2023-02-09T18:24:22.218Z,3.90
2023-02-09T18:26:50.994Z,2.70
2023-02-09T18:29:18.992Z,2.88
2023-02-09T18:31:47.278Z,3.20
2023-02-09T18:34:15.024Z,2.92
2023-02-09T18:36:42.890Z,2.83
2023-02-09T18:39:10.447Z,2.20
2023-02-09T18:41:39.667Z,3.00
2023-02-09T18:44:07.204Z,2.92
2023-02-09T18:46:34.773Z,2.30
2023-02-09T18:49:03.628Z,2.40
2023-02-09T18:51:32.472Z,2.97
2023-02-09T18:54:00.265Z,2.72
2023-02-09T18:56:28.408Z,2.90
2023-02-09T18:58:57.437Z,2.58
2023-02-09T19:01:25.462Z,2.20
2023-02-09T19:03:53.230Z,2.30
2023-02-09T19:06:21.539Z,1.80
2023-02-09T19:08:50.331Z,2.30
2023-02-09T19:11:19.222Z,2.40
2023-02-09T19:14:07.585Z,1.40
2023-02-09T19:16:37.680Z,2.40
2023-02-09T19:19:05.268Z,1.65
2023-02-09T19:21:32.899Z,1.80
2023-02-09T19:24:00.502Z,2.00
2023-02-09T19:26:28.109Z,2.38
2023-02-09T19:28:56.961Z,2.10
2023-02-09T19:31:24.746Z,1.77
2023-02-09T19:33:56.933Z,1.73
2023-02-09T19:36:27.633Z,2.35
2023-02-09T19:38:55.272Z,1.33
2023-02-09T19:41:23.580Z,1.33
2023-02-09T19:43:55.129Z,1.73
2023-02-09T19:46:22.706Z,1.73
2023-02-09T19:48:50.409Z,1.48
2023-02-09T19:51:19.337Z,1.85
2023-02-09T19:53:46.847Z,1.40
2023-02-09T19:56:15.813Z,1.90
2023-02-09T19:58:43.431Z,1.63
2023-02-09T20:01:11.085Z,1.77
2023-02-09T20:03:38.902Z,1.60
2023-02-09T20:06:07.587Z,1.70
2023-02-09T20:08:37.155Z,2.45
2023-02-09T20:11:05.893Z,2.05
2023-02-09T20:13:33.504Z,1.23
2023-02-09T20:16:01.176Z,2.10
2023-02-09T20:18:29.013Z,2.00
2023-02-09T20:20:58.351Z,1.40
2023-02-09T20:23:25.927Z,1.50
2023-02-09T20:25:54.992Z,1.75
2023-02-09T20:28:22.829Z,1.85
2023-02-09T20:30:50.573Z,1.30
2023-02-09T20:33:18.152Z,1.42
2023-02-09T20:35:46.564Z,2.28
2023-02-09T20:38:14.624Z,1.65
2023-02-09T20:40:42.474Z,1.88
2023-02-09T20:43:30.787Z,1.87
2023-02-09T20:46:16.190Z,1.58
2023-02-09T20:48:43.828Z,1.55
2023-02-09T20:51:11.378Z,2.38
2023-02-09T20:53:38.960Z,1.75
2023-02-09T20:56:06.869Z,1.77
2023-02-09T20:58:37.689Z,1.70
2023-02-09T21:01:05.956Z,1.55
2023-02-09T21:03:33.552Z,2.22
2023-02-09T21:06:01.153Z,1.73
2023-02-09T21:08:28.808Z,2.03
2023-02-09T21:10:56.708Z,1.67
2023-02-09T21:13:24.342Z,1.80
2023-02-09T21:15:53.284Z,1.75
2023-02-09T21:18:21.847Z,2.42
2023-02-09T21:20:49.924Z,1.90
2023-02-09T21:23:17.928Z,1.98
2023-02-09T21:25:46.671Z,2.25
2023-02-09T21:28:15.138Z,1.85
2023-02-09T21:30:43.317Z,1.55
2023-02-09T21:33:12.220Z,1.83
2023-02-09T21:35:40.162Z,2.00
2023-02-09T21:38:07.860Z,2.00
2023-02-09T21:40:35.459Z,1.65
2023-02-09T21:43:02.987Z,1.17
2023-02-09T21:45:30.827Z,1.70
2023-02-09T21:47:59.650Z,1.75
2023-02-09T21:50:28.559Z,1.85
2023-02-09T21:52:56.158Z,1.60
2023-02-09T21:55:23.736Z,1.10
2023-02-09T21:57:51.312Z,1.23
2023-02-09T22:00:19.132Z,1.58
2023-02-09T22:02:46.716Z,1.73
2023-02-09T22:05:14.342Z,1.15
2023-02-09T22:07:45.575Z,1.58
2023-02-09T22:10:13.169Z,1.50
2023-02-09T22:12:40.754Z,2.13
2023-02-09T22:15:08.667Z,1.92
2023-02-09T22:17:37.192Z,1.75
2023-02-09T22:20:05.016Z,1.30
2023-02-09T22:22:32.623Z,1.60
2023-02-09T22:25:01.519Z,1.70
2023-02-09T22:27:29.069Z,2.20
2023-02-09T22:29:56.656Z,2.30
2023-02-09T22:32:24.459Z,2.30
2023-02-09T22:34:52.006Z,2.00
2023-02-09T22:37:19.560Z,2.08
2023-02-09T22:39:48.153Z,1.55
2023-02-09T22:42:17.047Z,1.90
2023-02-09T22:44:44.595Z,1.52
2023-02-09T22:47:12.181Z,1.37
2023-02-09T22:49:39.780Z,1.67
2023-02-09T22:52:07.316Z,1.98
2023-02-09T22:54:34.958Z,1.70
2023-02-09T22:57:02.662Z,1.50
2023-02-09T22:59:31.826Z,1.63
2023-02-09T23:01:59.387Z,1.92
2023-02-09T23:04:26.950Z,1.73
2023-02-09T23:06:54.538Z,1.40
2023-02-09T23:09:22.074Z,1.98
2023-02-09T23:11:49.652Z,2.10
2023-02-09T23:14:17.349Z,2.40
2023-02-09T23:16:46.755Z,2.00
2023-02-09T23:19:16.442Z,2.15
2023-02-09T23:21:45.356Z,1.88
2023-02-09T23:24:13.935Z,2.10
2023-02-09T23:26:41.602Z,2.35
2023-02-09T23:29:10.364Z,2.13
2023-02-09T23:31:38.694Z,2.05
2023-02-09T23:34:07.633Z,1.63
2023-02-09T23:36:35.765Z,2.00
2023-02-09T23:39:04.547Z,1.98
2023-02-09T23:41:32.161Z,2.17
2023-02-09T23:43:59.988Z,2.05
2023-02-09T23:46:28.946Z,2.10
2023-02-09T23:48:56.719Z,1.97
2023-02-09T23:51:26.737Z,1.75
2023-02-09T23:53:54.825Z,1.77
2023-02-09T23:56:22.896Z,2.28
2023-02-09T23:58:51.866Z,2.50
